Portada
METAR-TAF:

METAR-TAF

Aeroports :

Dakar, Senegal

latitud: 14-44N, longitud: 017-30W, altitud: 27 m

Observació

L'informe es va fer fa 1 hora i 34 minuts, a les 03:00 UTC
Vent 8 kt del Oest
Temperatura 28°C
Humitat 84%
Pressió 1009 hPa
Visibilitat: 8000 m
Núvols disperses a una alçada de 1600 ft

METAR: GOOY 220300Z 26008KT 8000 SCT016 28/25 Q1009

Hora: 04:34 (04:34 UTC)

Pronòstic

L'informe es va fer fa 5 hores i 4 minuts, a les 23:30 UTC
Pronòstic vàlid del 22 a les 00 UTC al 23 a les 06 UTC
Vent 8 kt del Oest
Visibilitat: 8000 m
Núvols disperses a una alçada de 1300 ft
Probabilitat 30% :
Temporalment
l' 22 a les 02 UTC al 22 a les 08 UTC
Visibilitat: 4000 m
Cel ennuvolat a una alçada de 1200 ft
Escasses núvols a una alçada de 2000 ft, Cumulonimbus.
tempesta, pluja

TAF: GOOY 212330Z 2200/2306 26008KT 8000 SCT013 PROB30 TEMPO 2202/2208 4000 TSRA BKN012 FEW020CB

Observacions i pronòstics meteorològics de més de 4000 aeroports (METAR i TAF).

Les estacions disponibles són els punts grocs i vermells al mapa.

Posi el ratolí al punt desitjat per veure el nom de l'estació.

Feu clic per veure les observacions i els pronòstics meteorològics.

Per canviar el mapa: feu clic els botons verds amb una creu de color negre per apropar; al botó verd amb un guió per allunyar la imatge; o en les fletxes verdes per a mapes adjacents.


METAR-TAF: